Time;durP1;ratioP1;P1;durP2;ratioP2;P2;SDS_P1;SDS_P2;PMS_P1;PMS_P2;Temp;Humidity;BMP_temperature;BMP_pressure;BME280_temperature;BME280_humidity;BME280_pressure;Samples;Min_cycle;Max_cycle;Signal;HPM_P1;HPM_P2
2022/12/02 00:02:28;;;;;;;21.38;10.30;;;;;;;0.41;100.00;101515.69;5014211;28;20433;-77
2022/12/02 00:05:02;;;;;;;15.43;9.07;;;;;;;0.69;100.00;101557.75;5012231;28;20053;-77
2022/12/02 00:07:28;;;;;;;20.23;10.18;;;;;;;-0.23;100.00;101381.22;5000404;28;20045;-77
2022/12/02 00:09:53;;;;;;;20.90;10.38;;;;;;;-0.12;100.00;101399.88;5009398;28;20092;-76
2022/12/02 00:12:23;;;;;;;17.40;8.90;;;;;;;0.37;100.00;101456.03;5008457;28;20132;-76
2022/12/02 00:15:21;;;;;;;21.08;9.45;;;;;;;0.93;100.00;101555.69;5008465;28;21196;-75
2022/12/02 00:17:46;;;;;;;17.92;8.05;;;;;;;0.94;100.00;101557.47;5000722;28;20057;-75
2022/12/02 00:20:12;;;;;;;17.58;9.68;;;;;;;0.80;100.00;101547.22;5015530;28;20092;-78
2022/12/02 00:22:37;;;;;;;17.75;8.45;;;;;;;0.26;100.00;101451.94;5008916;28;20100;-78
2022/12/02 00:25:03;;;;;;;19.48;9.88;;;;;;;0.49;100.00;101521.31;5007790;28;20058;-75
2022/12/02 00:27:28;;;;;;;12.55;8.27;;;;;;;-0.25;100.00;101410.28;5006723;28;20199;-78
2022/12/02 00:29:54;;;;;;;16.83;9.40;;;;;;;0.36;100.00;101562.69;5006832;28;20046;-77
2022/12/02 00:32:19;;;;;;;18.35;9.48;;;;;;;-0.50;100.00;101380.44;5011543;28;20739;-77
2022/12/02 00:34:45;;;;;;;15.88;8.30;;;;;;;0.65;100.00;101532.53;5005392;28;20778;-78
2022/12/02 00:37:10;;;;;;;17.75;9.63;;;;;;;0.55;100.00;101554.34;5006371;28;20417;-78
2022/12/02 00:39:36;;;;;;;16.98;9.30;;;;;;;0.36;100.00;101532.59;5007772;28;20034;-76
2022/12/02 00:42:01;;;;;;;15.65;8.20;;;;;;;-0.09;100.00;101454.25;5000975;28;20125;-76
2022/12/02 00:47:11;;;;;;;19.50;8.15;;;;;;;0.56;100.00;101562.19;4978394;28;20630;-77
2022/12/02 00:49:36;;;;;;;14.57;8.75;;;;;;;0.48;100.00;101552.22;4999897;28;20065;-77
2022/12/02 00:52:02;;;;;;;17.83;8.30;;;;;;;0.36;100.00;101521.41;5009391;28;20504;-76
2022/12/02 00:54:27;;;;;;;17.25;8.35;;;;;;;0.15;100.00;101509.00;5010585;28;20513;-77
2022/12/02 00:56:53;;;;;;;17.23;8.27;;;;;;;-0.32;100.00;101416.75;5008891;28;20049;-76
2022/12/02 00:59:18;;;;;;;16.17;10.32;;;;;;;0.50;100.00;101567.00;5007702;28;20454;-76
2022/12/02 01:01:44;;;;;;;17.00;8.23;;;;;;;0.14;100.00;101512.38;5008157;28;20070;-76
2022/12/02 01:04:10;;;;;;;12.90;6.90;;;;;;;0.48;100.00;101553.09;5003706;28;20053;-77
2022/12/02 01:06:36;;;;;;;17.73;8.55;;;;;;;-0.54;100.00;101423.97;5006697;28;20042;-77
2022/12/02 01:09:01;;;;;;;11.30;7.40;;;;;;;-0.44;100.00;101442.69;5008050;28;20057;-75
2022/12/02 01:11:27;;;;;;;13.43;7.88;;;;;;;0.18;100.00;101510.88;5008246;28;20641;-77
2022/12/02 01:13:52;;;;;;;14.40;8.57;;;;;;;0.23;100.00;101549.84;5007440;28;20048;-76
2022/12/02 01:16:17;;;;;;;14.30;7.03;;;;;;;-0.56;100.00;101397.22;5005184;28;20062;-75
2022/12/02 01:18:43;;;;;;;14.55;7.55;;;;;;;0.32;100.00;101548.72;5008143;28;20057;-77
2022/12/02 01:21:08;;;;;;;14.90;8.98;;;;;;;-0.28;100.00;101400.69;5007999;28;20034;-76
2022/12/02 01:23:34;;;;;;;14.82;7.40;;;;;;;0.53;100.00;101538.75;5007813;28;20025;-76
2022/12/02 01:25:59;;;;;;;16.13;9.38;;;;;;;0.14;100.00;101517.53;4999987;28;20617;-78
2022/12/02 01:28:25;;;;;;;14.98;8.55;;;;;;;0.41;100.00;101561.28;5004308;28;20049;-76
2022/12/02 01:30:50;;;;;;;12.05;6.32;;;;;;;0.60;100.00;101556.38;5007862;28;20143;-75
2022/12/02 01:33:16;;;;;;;35.13;10.77;;;;;;;0.54;100.00;101548.31;5010111;28;20034;-75
2022/12/02 01:35:42;;;;;;;14.93;8.50;;;;;;;0.54;100.00;101537.06;5007807;28;20045;-76
2022/12/02 01:38:08;;;;;;;15.90;8.15;;;;;;;-0.10;100.00;101456.72;5008006;28;20025;-77
2022/12/02 01:40:33;;;;;;;20.55;10.13;;;;;;;0.41;100.00;101550.94;5005870;28;20038;-77
2022/12/02 01:42:59;;;;;;;16.50;7.78;;;;;;;0.35;100.00;101523.09;5005991;28;20038;-77
2022/12/02 01:45:26;;;;;;;11.25;7.38;;;;;;;0.59;100.00;101536.53;5004339;28;20042;-77
2022/12/02 01:47:52;;;;;;;15.23;8.48;;;;;;;0.14;100.00;101449.53;5007420;28;20058;-77
2022/12/02 01:50:18;;;;;;;11.90;6.45;;;;;;;0.32;100.00;101509.97;5007717;28;20117;-78
2022/12/02 01:52:44;;;;;;;11.30;7.10;;;;;;;0.06;100.00;101474.00;5005893;28;20133;-77
2022/12/02 01:55:14;;;;;;;12.52;8.00;;;;;;;0.44;100.00;101547.66;5007193;28;20054;-76
2022/12/02 01:57:40;;;;;;;11.88;7.97;;;;;;;0.53;100.00;101548.19;4999907;28;20084;-75
2022/12/02 02:00:06;;;;;;;14.55;8.98;;;;;;;-0.37;100.00;101407.88;5005579;28;20050;-76
2022/12/02 02:02:36;;;;;;;16.38;8.02;;;;;;;0.35;100.00;101525.69;5003574;28;20121;-75
2022/12/02 02:05:08;;;;;;;15.98;8.50;;;;;;;0.37;100.00;101507.69;5007643;28;20057;-77
2022/12/02 02:07:34;;;;;;;11.75;7.80;;;;;;;0.11;100.00;101512.19;5007344;28;20053;-76
2022/12/02 02:10:00;;;;;;;13.93;8.02;;;;;;;0.26;100.00;101550.03;5007411;28;20123;-76
2022/12/02 02:12:26;;;;;;;20.15;9.27;;;;;;;-0.12;100.00;101461.78;4999806;28;20553;-77
2022/12/02 02:14:52;;;;;;;15.18;7.13;;;;;;;-0.09;100.00;101492.94;5002721;28;20038;-77
2022/12/02 02:17:18;;;;;;;14.73;8.43;;;;;;;0.23;100.00;101563.63;5006451;28;20034;-76
2022/12/02 02:19:43;;;;;;;13.32;7.45;;;;;;;-0.09;100.00;101437.88;5007144;28;20057;-76
2022/12/02 02:22:15;;;;;;;14.73;6.28;;;;;;;0.18;100.00;101527.22;5006844;28;20057;-77
2022/12/02 02:24:41;;;;;;;15.35;7.85;;;;;;;0.65;100.00;101548.03;5007080;28;20072;-76
2022/12/02 02:27:06;;;;;;;14.00;7.53;;;;;;;-0.14;100.00;101398.00;5005001;28;20092;-75
2022/12/02 02:29:32;;;;;;;13.75;8.35;;;;;;;0.30;100.00;101539.09;5006938;28;20064;-75
2022/12/02 02:31:58;;;;;;;17.70;9.00;;;;;;;0.33;100.00;101550.50;5006790;28;20452;-75
2022/12/02 02:34:24;;;;;;;13.48;7.43;;;;;;;0.16;100.00;101513.38;5005209;28;20057;-79
2022/12/02 02:36:50;;;;;;;17.02;8.70;;;;;;;0.13;100.00;101554.47;5005770;28;20523;-77
2022/12/02 02:39:15;;;;;;;16.13;7.47;;;;;;;0.30;100.00;101523.59;5004117;28;20050;-76
2022/12/02 02:41:41;;;;;;;17.20;8.38;;;;;;;0.41;100.00;101518.28;5005088;28;20592;-78
2022/12/02 02:44:07;;;;;;;14.77;9.75;;;;;;;-0.56;100.00;101390.41;5006495;28;20037;-77
2022/12/02 02:46:32;;;;;;;15.48;8.18;;;;;;;0.32;100.00;101546.13;4993138;28;20351;-77
2022/12/02 02:48:58;;;;;;;16.85;8.55;;;;;;;-0.15;100.00;101455.56;5004706;28;20055;-76
2022/12/02 02:51:23;;;;;;;12.90;7.60;;;;;;;0.48;100.00;101510.91;5003847;28;20038;-76
2022/12/02 02:53:49;;;;;;;15.93;9.63;;;;;;;0.46;100.00;101505.63;5006427;28;20133;-77
2022/12/02 02:56:15;;;;;;;17.17;9.75;;;;;;;-0.31;100.00;101382.44;5006998;28;20602;-75
2022/12/02 02:58:41;;;;;;;14.55;8.20;;;;;;;0.43;100.00;101556.22;5004427;28;20058;-75
2022/12/02 03:01:30;;;;;;;13.77;7.40;;;;;;;0.32;100.00;101535.78;4999715;28;20047;-76
2022/12/02 03:04:02;;;;;;;15.80;9.10;;;;;;;-0.87;100.00;101318.06;5007524;28;20050;-76
2022/12/02 03:06:29;;;;;;;17.08;8.50;;;;;;;-0.12;100.00;101466.06;5006244;28;20069;-76
2022/12/02 03:08:57;;;;;;;15.55;9.95;;;;;;;0.17;100.00;101522.00;5006195;28;20784;-75
2022/12/02 03:11:23;;;;;;;17.50;9.68;;;;;;;-0.18;100.00;101507.84;5004886;28;20033;-77
2022/12/02 03:13:50;;;;;;;15.35;7.38;;;;;;;0.18;100.00;101509.16;5001851;28;20076;-76
2022/12/02 03:16:20;;;;;;;13.77;6.82;;;;;;;0.40;100.00;101521.66;5006339;28;20053;-75
2022/12/02 03:18:46;;;;;;;14.15;7.45;;;;;;;-0.28;100.00;101399.75;5009646;28;20058;-76
2022/12/02 03:21:15;;;;;;;14.55;7.57;;;;;;;0.55;100.00;101537.16;4990882;28;20421;-75
2022/12/02 03:23:40;;;;;;;18.83;8.63;;;;;;;0.06;100.00;101507.56;4989534;28;20034;-76
2022/12/02 03:26:07;;;;;;;16.00;8.13;;;;;;;-0.37;100.00;101412.13;5008789;28;20100;-77
2022/12/02 03:28:33;;;;;;;15.05;7.80;;;;;;;-0.17;100.00;101459.75;5001758;28;20192;-75
2022/12/02 03:30:59;;;;;;;13.88;9.10;;;;;;;0.16;100.00;101535.69;4990199;28;20141;-76
2022/12/02 03:33:25;;;;;;;16.88;9.50;;;;;;;0.19;100.00;101529.03;4982867;28;20441;-77
2022/12/02 03:35:50;;;;;;;13.68;7.38;;;;;;;-0.58;100.00;101375.66;4991434;28;20490;-76
2022/12/02 03:38:16;;;;;;;14.80;8.63;;;;;;;0.09;100.00;101495.72;5005272;28;20129;-76
2022/12/02 03:40:42;;;;;;;14.93;7.43;;;;;;;-0.76;100.00;101388.28;5005003;28;20050;-77
2022/12/02 03:43:08;;;;;;;15.38;7.53;;;;;;;-0.30;100.00;101411.72;5006690;28;20074;-76
2022/12/02 03:45:34;;;;;;;10.63;6.75;;;;;;;0.71;100.00;101558.72;5008153;28;20437;-76
2022/12/02 03:48:01;;;;;;;15.55;7.93;;;;;;;0.37;100.00;101554.13;5009489;28;20096;-77
2022/12/02 03:50:27;;;;;;;14.40;8.73;;;;;;;0.38;100.00;101527.53;5010081;28;20030;-77
2022/12/02 03:52:53;;;;;;;16.33;8.98;;;;;;;-0.05;100.00;101435.59;5008934;28;20049;-76
2022/12/02 03:55:19;;;;;;;15.65;7.90;;;;;;;-0.43;100.00;101426.41;4996509;28;20443;-76
2022/12/02 03:57:45;;;;;;;12.73;7.05;;;;;;;-0.37;100.00;101396.66;5006460;28;20049;-76
2022/12/02 04:00:11;;;;;;;15.40;8.77;;;;;;;0.39;100.00;101580.94;5009841;28;20482;-77
2022/12/02 04:02:36;;;;;;;16.83;7.75;;;;;;;-0.25;100.00;101448.97;5007514;28;20068;-77
2022/12/02 04:05:02;;;;;;;17.42;9.15;;;;;;;-0.17;100.00;101507.03;5009874;28;20485;-76
2022/12/02 04:07:28;;;;;;;11.20;7.03;;;;;;;0.34;100.00;101515.25;5008000;28;20058;-75
2022/12/02 04:09:53;;;;;;;14.18;7.40;;;;;;;-0.09;100.00;101422.41;5009473;28;20500;-77
2022/12/02 04:12:19;;;;;;;16.33;9.55;;;;;;;0.49;100.00;101559.13;5007756;28;20050;-76
2022/12/02 04:14:44;;;;;;;15.82;8.35;;;;;;;-0.36;100.00;101419.06;5008799;28;20038;-77
2022/12/02 04:17:10;;;;;;;16.48;8.60;;;;;;;0.40;100.00;101559.50;5009768;28;20100;-76
2022/12/02 04:19:35;;;;;;;14.45;8.45;;;;;;;0.05;100.00;101459.31;5009244;28;20045;-76
2022/12/02 04:22:01;;;;;;;18.38;9.13;;;;;;;0.11;100.00;101459.69;5006206;28;20551;-76
2022/12/02 04:24:27;;;;;;;18.50;9.13;;;;;;;0.43;100.00;101551.94;5003289;28;20046;-79
2022/12/02 04:26:53;;;;;;;15.27;8.20;;;;;;;-0.52;100.00;101422.41;5003561;28;20078;-77
2022/12/02 04:29:19;;;;;;;14.70;7.93;;;;;;;-0.17;100.00;101437.41;5009378;28;20045;-75
2022/12/02 04:31:44;;;;;;;17.92;8.25;;;;;;;-0.53;100.00;101381.97;5005650;28;20049;-78
2022/12/02 04:34:09;;;;;;;13.82;8.20;;;;;;;-0.05;100.00;101458.81;5016347;28;20052;-75
2022/12/02 04:36:35;;;;;;;13.07;7.68;;;;;;;0.31;100.00;101579.63;5006447;28;20437;-76
2022/12/02 04:39:00;;;;;;;21.58;11.27;;;;;;;-0.51;100.00;101432.81;5008764;28;20072;-77
2022/12/02 04:41:28;;;;;;;14.77;9.13;;;;;;;0.29;100.00;101595.00;5007181;28;20695;-77
2022/12/02 04:43:53;;;;;;;16.75;8.38;;;;;;;-0.36;100.00;101412.22;5000594;28;20036;-77
2022/12/02 04:46:19;;;;;;;17.38;8.88;;;;;;;0.48;100.00;101583.19;5007032;28;20050;-76
2022/12/02 04:48:44;;;;;;;17.17;9.82;;;;;;;-0.38;100.00;101470.53;5007443;28;20038;-78
2022/12/02 04:51:10;;;;;;;17.30;9.10;;;;;;;-0.37;100.00;101427.63;5007408;28;20431;-76
2022/12/02 04:53:35;;;;;;;14.95;9.10;;;;;;;0.47;100.00;101582.31;5008231;28;20050;-76
2022/12/02 04:56:01;;;;;;;14.93;8.02;;;;;;;-0.54;100.00;101449.75;5008963;28;20100;-76
2022/12/02 04:58:27;;;;;;;16.83;10.20;;;;;;;-0.06;100.00;101476.75;5008653;28;20501;-76
2022/12/02 05:00:52;;;;;;;15.30;8.75;;;;;;;-0.40;100.00;101419.66;5008611;28;20421;-77
2022/12/02 05:03:17;;;;;;;21.08;10.18;;;;;;;0.31;100.00;101587.34;5008023;28;20413;-75
2022/12/02 05:05:43;;;;;;;18.25;10.38;;;;;;;0.47;100.00;101599.47;5007436;28;20148;-75
2022/12/02 05:08:08;;;;;;;22.73;11.40;;;;;;;-0.11;100.00;101537.50;5008702;28;20037;-76
2022/12/02 05:10:34;;;;;;;15.40;9.60;;;;;;;0.40;100.00;101613.72;5006001;28;20502;-76
2022/12/02 05:12:59;;;;;;;18.20;10.13;;;;;;;0.35;100.00;101558.31;5008104;28;20609;-76
2022/12/02 05:15:25;;;;;;;39.03;12.93;;;;;;;0.38;100.00;101592.09;5006589;28;20548;-76
2022/12/02 05:17:50;;;;;;;19.33;9.93;;;;;;;0.04;100.00;101489.41;5007977;28;20482;-76
2022/12/02 05:20:16;;;;;;;17.60;11.70;;;;;;;-0.43;100.00;101451.31;5007043;28;20394;-76
2022/12/02 05:22:41;;;;;;;17.33;10.30;;;;;;;-0.31;100.00;101492.41;5000713;28;20058;-76
2022/12/02 05:25:07;;;;;;;16.95;11.48;;;;;;;-0.32;100.00;101475.19;5006357;28;20053;-76
2022/12/02 05:27:32;;;;;;;23.55;11.63;;;;;;;0.36;100.00;101609.16;5007586;28;20050;-76
2022/12/02 05:29:58;;;;;;;26.40;10.98;;;;;;;0.36;100.00;101614.34;5007810;28;20817;-75
2022/12/02 05:32:25;;;;;;;19.95;11.05;;;;;;;0.54;100.00;101607.69;5007469;28;20452;-78
2022/12/02 05:34:50;;;;;;;20.90;12.15;;;;;;;0.01;100.00;101502.13;5016816;28;20068;-75
2022/12/02 05:37:16;;;;;;;24.50;11.10;;;;;;;0.54;100.00;101578.38;5006066;28;20486;-76
2022/12/02 05:39:41;;;;;;;25.95;12.52;;;;;;;-0.54;100.00;101385.31;5006937;28;20060;-75
2022/12/02 05:42:12;;;;;;;19.73;12.05;;;;;;;0.33;100.00;101585.75;5007236;28;20049;-76
2022/12/02 05:44:37;;;;;;;17.33;10.98;;;;;;;0.46;100.00;101595.13;5006826;28;20033;-75
2022/12/02 05:47:13;;;;;;;21.80;10.93;;;;;;;0.03;100.00;101500.53;5004410;28;20048;-77
2022/12/02 05:49:40;;;;;;;16.92;11.02;;;;;;;0.26;100.00;101618.06;5029423;28;20144;-76
2022/12/02 05:52:26;;;;;;;23.20;12.45;;;;;;;-1.13;100.00;101360.25;5005665;28;20042;-76
2022/12/02 05:54:54;;;;;;;23.95;13.15;;;;;;;-0.66;100.00;101480.81;5006716;28;20050;-76
2022/12/02 05:57:28;;;;;;;22.70;11.00;;;;;;;0.25;100.00;101611.09;5007525;28;20556;-77
2022/12/02 06:00:19;;;;;;;19.15;12.52;;;;;;;0.24;100.00;101637.72;5004670;28;20056;-75
2022/12/02 06:03:00;;;;;;;33.33;14.45;;;;;;;0.32;100.00;101620.97;5005632;28;20734;-76
2022/12/02 06:05:36;;;;;;;20.08;12.88;;;;;;;0.11;100.00;101581.84;5005289;28;20053;-78
2022/12/02 06:08:21;;;;;;;23.55;10.38;;;;;;;0.36;100.00;101616.91;5007628;28;20041;-76
2022/12/02 06:10:53;;;;;;;23.08;11.82;;;;;;;0.65;100.00;101636.72;5003189;28;20058;-79
2022/12/02 06:13:26;;;;;;;29.25;12.77;;;;;;;-0.07;100.00;101498.16;5002460;28;20133;-77
2022/12/02 06:15:52;;;;;;;20.02;13.38;;;;;;;0.44;100.00;101602.75;5007080;28;20056;-76
2022/12/02 06:18:20;;;;;;;30.27;12.10;;;;;;;-0.15;100.00;101525.22;5005189;28;20444;-75
2022/12/02 06:20:52;;;;;;;22.73;13.57;;;;;;;-0.10;100.00;101491.13;5005959;28;20148;-76
2022/12/02 06:23:21;;;;;;;19.95;10.85;;;;;;;0.58;100.00;101604.47;5005414;28;20502;-75
2022/12/02 06:25:50;;;;;;;26.02;12.00;;;;;;;0.16;100.00;101507.28;5005323;28;20049;-75
2022/12/02 06:28:26;;;;;;;36.58;15.57;;;;;;;0.78;100.00;101643.53;5006951;28;20161;-76
2022/12/02 06:30:57;;;;;;;23.13;12.70;;;;;;;-0.05;100.00;101512.06;5006621;28;20062;-76
2022/12/02 06:33:30;;;;;;;22.77;14.70;;;;;;;-0.62;100.00;101400.31;5012969;28;20045;-76
2022/12/02 06:35:58;;;;;;;26.38;15.13;;;;;;;-0.05;100.00;101463.03;4997676;28;20043;-77
2022/12/02 06:38:29;;;;;;;31.10;14.23;;;;;;;0.34;100.00;101525.56;5006626;28;20133;-75
2022/12/02 06:40:58;;;;;;;27.20;14.77;;;;;;;0.33;100.00;101568.56;5006501;28;20057;-75
2022/12/02 06:43:30;;;;;;;19.10;11.82;;;;;;;1.24;100.00;101639.34;5003321;28;20046;-77
2022/12/02 06:45:57;;;;;;;19.55;10.95;;;;;;;1.05;100.00;101608.06;5004757;28;20275;-79
2022/12/02 06:48:22;;;;;;;27.65;13.13;;;;;;;1.20;100.00;101655.47;5006492;28;20511;-77
2022/12/02 06:50:48;;;;;;;29.40;14.30;;;;;;;0.17;100.00;101522.88;5009556;28;20054;-76
2022/12/02 06:53:23;;;;;;;28.13;14.88;;;;;;;1.23;100.00;101634.09;5007599;28;20038;-76
2022/12/02 06:55:51;;;;;;;25.17;13.60;;;;;;;-0.23;100.00;101512.75;4998339;28;20085;-76
2022/12/02 06:58:36;;;;;;;30.90;15.95;;;;;;;0.65;100.00;101628.09;5009612;28;20485;-77
2022/12/02 07:01:29;;;;;;;27.90;14.38;;;;;;;0.62;100.00;101631.38;4993500;28;20076;-77
2022/12/02 07:04:08;;;;;;;47.10;14.00;;;;;;;0.13;100.00;101514.88;5000086;28;20046;-75
2022/12/02 07:06:42;;;;;;;35.67;16.58;;;;;;;0.76;100.00;101619.28;5002336;28;20459;-76
2022/12/02 07:09:28;;;;;;;26.13;13.77;;;;;;;0.75;100.00;101658.81;4996990;28;20052;-81
2022/12/02 07:11:57;;;;;;;32.22;13.82;;;;;;;1.18;100.00;101659.66;5001145;28;20061;-76
2022/12/02 07:14:31;;;;;;;23.08;14.95;;;;;;;1.26;100.00;101661.03;5008462;28;20508;-77
2022/12/02 07:17:12;;;;;;;29.02;17.65;;;;;;;1.00;100.00;101645.66;5007379;28;20284;-77
2022/12/02 07:19:43;;;;;;;24.75;13.07;;;;;;;1.33;100.00;101651.00;5008588;28;20049;-79
2022/12/02 07:22:19;;;;;;;23.50;14.40;;;;;;;0.42;100.00;101550.13;5002050;28;20112;-77
2022/12/02 07:24:54;;;;;;;25.38;13.10;;;;;;;0.40;100.00;101560.41;5003793;28;20114;-81
2022/12/02 07:27:28;;;;;;;24.20;14.55;;;;;;;0.99;100.00;101675.78;4999763;28;20070;-77
2022/12/02 07:29:55;;;;;;;26.45;14.40;;;;;;;0.89;100.00;101664.81;4998153;28;20176;-78
2022/12/02 07:32:21;;;;;;;42.70;13.45;;;;;;;1.18;100.00;101684.63;5005190;28;20033;-74
2022/12/02 07:34:47;;;;;;;23.35;13.27;;;;;;;1.29;100.00;101667.13;5001302;28;20119;-75
2022/12/02 07:37:12;;;;;;;26.38;13.30;;;;;;;0.27;100.00;101550.13;5003262;28;20065;-75
2022/12/02 07:39:38;;;;;;;31.35;13.73;;;;;;;0.99;100.00;101644.78;5007969;28;20183;-76
2022/12/02 07:42:04;;;;;;;29.88;14.65;;;;;;;0.49;100.00;101516.16;5004083;28;20073;-77
2022/12/02 07:44:32;;;;;;;29.73;14.98;;;;;;;0.17;100.00;101550.38;5001562;28;20041;-79
2022/12/02 07:46:58;;;;;;;24.08;13.10;;;;;;;0.32;100.00;101625.25;5002407;28;20502;-77
2022/12/02 07:49:23;;;;;;;26.67;14.77;;;;;;;0.90;100.00;101702.78;5001255;28;20049;-76
2022/12/02 07:51:49;;;;;;;25.45;15.43;;;;;;;1.00;100.00;101690.50;5004448;28;20053;-77
2022/12/02 07:54:14;;;;;;;25.27;15.55;;;;;;;1.03;100.00;101706.19;5007143;28;20046;-72
2022/12/02 07:56:40;;;;;;;31.08;15.50;;;;;;;0.94;100.00;101666.00;5005617;28;20037;-71
2022/12/02 07:59:05;;;;;;;38.65;14.68;;;;;;;0.31;100.00;101566.69;5002771;28;20825;-72
2022/12/02 08:01:31;;;;;;;37.35;16.88;;;;;;;1.12;100.00;101669.63;4995861;28;20046;-73
2022/12/02 08:03:56;;;;;;;28.42;15.10;;;;;;;1.46;100.00;101662.16;5013592;28;20232;-75
2022/12/02 08:06:22;;;;;;;29.63;15.85;;;;;;;1.80;100.00;101682.19;5004452;28;20421;-75
2022/12/02 08:08:47;;;;;;;37.50;15.82;;;;;;;1.62;100.00;101643.22;5003961;28;20050;-76
2022/12/02 08:11:13;;;;;;;39.95;14.63;;;;;;;0.89;100.00;101553.72;4998472;28;20486;-74
2022/12/02 08:13:38;;;;;;;29.17;14.77;;;;;;;1.66;100.00;101668.47;5003493;28;20469;-75
2022/12/02 08:16:04;;;;;;;29.95;15.27;;;;;;;1.76;100.00;101637.94;4995593;28;20050;-73
2022/12/02 08:18:29;;;;;;;35.63;15.60;;;;;;;2.10;100.00;101677.75;5007486;28;20041;-73
2022/12/02 08:20:55;;;;;;;28.58;15.00;;;;;;;0.47;100.00;101577.16;4995471;28;20490;-73
2022/12/02 08:23:20;;;;;;;31.67;15.65;;;;;;;1.32;100.00;101669.94;4999425;28;20401;-75
2022/12/02 08:25:46;;;;;;;39.33;19.02;;;;;;;1.36;100.00;101654.69;4992841;28;20100;-72
2022/12/02 08:28:11;;;;;;;37.75;17.27;;;;;;;1.14;100.00;101551.72;4994959;28;20089;-73
2022/12/02 08:30:37;;;;;;;22.60;12.40;;;;;;;1.17;100.00;101563.94;4996672;28;20052;-76
2022/12/02 08:33:02;;;;;;;27.35;15.98;;;;;;;0.86;100.00;101513.09;4998903;28;20034;-74
2022/12/02 08:35:27;;;;;;;23.85;13.05;;;;;;;1.16;100.00;101565.63;4992472;28;20105;-75
2022/12/02 08:37:54;;;;;;;34.65;16.60;;;;;;;0.45;100.00;101492.66;4994242;28;20058;-75
2022/12/02 08:40:19;;;;;;;26.95;15.82;;;;;;;1.75;100.00;101649.94;5000835;28;20844;-74
2022/12/02 08:42:45;;;;;;;30.80;14.60;;;;;;;0.24;100.00;101425.19;4996110;28;20058;-77
2022/12/02 08:45:11;;;;;;;29.85;15.18;;;;;;;1.53;100.00;101655.63;5001889;28;20049;-81
2022/12/02 08:47:37;;;;;;;24.33;13.45;;;;;;;0.60;100.00;101506.44;4997401;28;20049;-75
2022/12/02 08:50:04;;;;;;;24.73;15.45;;;;;;;1.39;100.00;101616.06;4998984;28;20137;-76
2022/12/02 08:52:29;;;;;;;22.35;15.40;;;;;;;1.22;100.00;101549.59;4982267;28;20096;-77
2022/12/02 08:54:56;;;;;;;42.17;18.75;;;;;;;1.36;100.00;101638.25;5004765;28;20593;-79
2022/12/02 08:57:22;;;;;;;28.20;15.57;;;;;;;0.66;100.00;101530.06;4994758;28;20081;-76
2022/12/02 08:59:47;;;;;;;33.08;16.55;;;;;;;1.67;100.00;101654.72;5004612;28;20080;-76
2022/12/02 09:02:13;;;;;;;33.53;15.60;;;;;;;0.70;100.00;101513.03;4999626;28;20066;-76
2022/12/02 09:04:38;;;;;;;37.28;17.10;;;;;;;1.68;100.00;101655.59;5022624;28;20061;-75
2022/12/02 09:07:04;;;;;;;33.53;15.80;;;;;;;1.43;100.00;101618.00;4998651;28;20050;-78
2022/12/02 09:09:29;;;;;;;24.17;14.05;;;;;;;1.56;100.00;101647.16;4998952;28;20610;-76
2022/12/02 09:11:56;;;;;;;35.47;17.65;;;;;;;1.25;100.00;101562.69;5004474;28;20080;-76
2022/12/02 09:14:22;;;;;;;22.20;12.45;;;;;;;1.37;100.00;101539.19;5006937;28;20130;-75
2022/12/02 09:16:47;;;;;;;29.50;14.27;;;;;;;1.90;100.00;101591.28;4995274;28;20141;-73
2022/12/02 09:19:13;;;;;;;27.65;13.35;;;;;;;1.74;100.00;101662.81;4995866;28;20054;-76
2022/12/02 09:21:38;;;;;;;28.20;14.68;;;;;;;1.61;100.00;101643.13;5001934;28;20585;-77
2022/12/02 09:24:04;;;;;;;36.88;17.05;;;;;;;2.11;100.00;101643.31;5003356;28;20038;-76
2022/12/02 09:26:30;;;;;;;37.65;16.55;;;;;;;2.03;100.00;101597.13;5000307;28;20136;-75
2022/12/02 09:28:55;;;;;;;28.83;13.35;;;;;;;1.47;100.00;101513.94;5005100;28;20465;-77
2022/12/02 09:31:21;;;;;;;23.77;12.38;;;;;;;1.94;100.00;101635.44;5006270;28;20065;-75
2022/12/02 09:33:46;;;;;;;41.65;18.38;;;;;;;1.42;100.00;101492.09;5001161;28;20046;-76
2022/12/02 09:36:12;;;;;;;36.45;18.52;;;;;;;2.51;100.00;101623.84;4993162;28;20058;-77
2022/12/02 09:38:37;;;;;;;27.52;14.23;;;;;;;2.35;100.00;101572.94;4997666;28;20045;-79
2022/12/02 09:41:03;;;;;;;18.88;13.23;;;;;;;2.23;100.00;101630.16;5002561;28;20037;-77
2022/12/02 09:43:29;;;;;;;28.83;13.35;;;;;;;2.78;100.00;101641.59;5002896;28;20641;-78
2022/12/02 09:45:55;;;;;;;23.42;13.35;;;;;;;1.91;100.00;101460.19;4999101;28;20054;-77
2022/12/02 09:48:21;;;;;;;26.85;13.63;;;;;;;2.80;100.00;101578.66;4998109;28;20523;-76
2022/12/02 09:50:47;;;;;;;27.38;14.25;;;;;;;2.19;100.00;101501.31;5004460;28;20133;-75
2022/12/02 09:53:17;;;;;;;20.45;13.65;;;;;;;2.33;100.00;101540.88;5003512;28;20049;-76
2022/12/02 09:55:43;;;;;;;22.73;12.60;;;;;;;2.32;100.00;101580.53;4998739;28;20061;-76
2022/12/02 09:58:15;;;;;;;25.90;13.48;;;;;;;0.93;100.00;101429.06;5000192;28;20038;-75
2022/12/02 10:00:40;;;;;;;23.05;12.70;;;;;;;1.11;100.00;101484.34;5003309;28;20157;-77
2022/12/02 10:03:07;;;;;;;30.48;16.05;;;;;;;1.20;100.00;101458.13;5002113;28;20465;-78
2022/12/02 10:05:35;;;;;;;29.58;16.13;;;;;;;2.01;100.00;101604.78;5004207;28;20056;-78
2022/12/02 10:08:02;;;;;;;20.75;11.70;;;;;;;1.90;100.00;101603.34;5003948;28;20069;-78
2022/12/02 10:10:36;;;;;;;26.00;13.80;;;;;;;2.07;100.00;101534.34;5003451;28;20038;-77
2022/12/02 10:13:02;;;;;;;29.25;12.15;;;;;;;2.64;100.00;101628.81;4998537;28;20088;-80
2022/12/02 10:15:30;;;;;;;25.17;16.70;;;;;;;2.40;100.00;101630.16;4987733;28;20065;-77
2022/12/02 10:17:58;;;;;;;19.75;10.55;;;;;;;2.12;100.00;101607.97;5000878;28;20072;-76
2022/12/02 10:20:26;;;;;;;30.70;11.10;;;;;;;1.47;100.00;101474.25;5004106;28;20041;-80
2022/12/02 10:23:09;;;;;;;21.02;11.93;;;;;;;1.69;100.00;101512.50;4997063;28;20517;-78
2022/12/02 10:25:37;;;;;;;18.17;12.13;;;;;;;2.72;100.00;101635.31;4996729;28;20050;-77
2022/12/02 10:28:03;;;;;;;20.20;12.93;;;;;;;2.57;100.00;101580.09;5004192;28;20086;-78
2022/12/02 10:30:30;;;;;;;35.05;14.70;;;;;;;2.59;100.00;101578.47;5004436;28;20768;-76
2022/12/02 10:33:07;;;;;;;23.15;13.43;;;;;;;2.54;100.00;101623.97;4997099;28;20080;-75
2022/12/02 10:35:47;;;;;;;32.75;10.75;;;;;;;2.39;100.00;101515.31;4995986;28;20053;-76
2022/12/02 10:38:28;;;;;;;24.00;11.15;;;;;;;2.40;100.00;101472.16;4989635;28;20067;-76
2022/12/02 10:41:18;;;;;;;24.17;11.52;;;;;;;3.00;100.00;101573.56;5002495;28;20096;-75
2022/12/02 10:44:05;;;;;;;21.38;11.73;;;;;;;3.31;100.00;101605.41;4996585;28;20050;-74
2022/12/02 10:46:31;;;;;;;16.25;8.73;;;;;;;2.62;100.00;101577.72;4998914;28;20080;-76
2022/12/02 10:49:27;;;;;;;25.30;11.25;;;;;;;2.65;100.00;101617.66;4992023;28;20076;-75
2022/12/02 10:51:54;;;;;;;21.38;9.80;;;;;;;2.65;100.00;101596.94;5000176;28;20054;-77
2022/12/02 10:54:31;;;;;;;24.90;11.93;;;;;;;1.84;100.00;101492.59;4991807;28;20498;-76
2022/12/02 10:56:59;;;;;;;17.67;10.60;;;;;;;1.95;100.00;101469.88;4996550;28;20053;-77
2022/12/02 10:59:25;;;;;;;15.57;10.45;;;;;;;1.93;100.00;101486.16;4992864;28;20050;-77
2022/12/02 11:01:52;;;;;;;24.30;14.00;;;;;;;2.60;100.00;101588.03;5000275;28;20065;-76
2022/12/02 11:04:18;;;;;;;27.83;15.65;;;;;;;3.24;100.00;101605.91;4992217;28;20553;-76
2022/12/02 11:06:44;;;;;;;30.67;17.15;;;;;;;2.09;100.00;101484.44;4995794;28;20133;-76
2022/12/02 11:09:22;;;;;;;32.67;17.42;;;;;;;2.91;100.00;101611.22;4995442;28;20046;-77
2022/12/02 11:11:48;;;;;;;22.73;12.95;;;;;;;2.26;100.00;101551.72;5002793;28;20057;-76
2022/12/02 11:14:40;;;;;;;28.33;14.38;;;;;;;2.66;100.00;101587.44;5003548;28;20033;-76
2022/12/02 11:17:09;;;;;;;26.48;13.45;;;;;;;1.92;100.00;101505.97;4997615;28;20050;-77
2022/12/02 11:19:35;;;;;;;20.90;10.55;;;;;;;2.70;100.00;101616.19;5001652;28;20727;-77